sensor_id;sensor_type;location;lat;lon;timestamp;temperature;humidity
3348;DHT22;1687;49.540;8.574;2022-12-07T00:01:25;6.80;93.30
3348;DHT22;1687;49.540;8.574;2022-12-07T00:03:57;6.80;93.00
3348;DHT22;1687;49.540;8.574;2022-12-07T00:06:34;6.80;93.70
3348;DHT22;1687;49.540;8.574;2022-12-07T00:09:04;6.80;93.50
3348;DHT22;1687;49.540;8.574;2022-12-07T00:11:32;6.70;93.30
3348;DHT22;1687;49.540;8.574;2022-12-07T00:13:59;6.70;93.70
3348;DHT22;1687;49.540;8.574;2022-12-07T00:16:28;6.80;93.80
3348;DHT22;1687;49.540;8.574;2022-12-07T00:18:55;6.90;93.80
3348;DHT22;1687;49.540;8.574;2022-12-07T00:21:24;7.00;93.80
3348;DHT22;1687;49.540;8.574;2022-12-07T00:23:52;7.00;93.70
3348;DHT22;1687;49.540;8.574;2022-12-07T00:26:21;7.00;93.80
3348;DHT22;1687;49.540;8.574;2022-12-07T00:28:54;7.10;93.70
3348;DHT22;1687;49.540;8.574;2022-12-07T00:31:24;7.10;93.80
3348;DHT22;1687;49.540;8.574;2022-12-07T00:33:52;7.10;93.60
3348;DHT22;1687;49.540;8.574;2022-12-07T00:36:21;7.10;93.50
3348;DHT22;1687;49.540;8.574;2022-12-07T00:38:48;7.10;93.70
3348;DHT22;1687;49.540;8.574;2022-12-07T00:41:16;7.10;93.70
3348;DHT22;1687;49.540;8.574;2022-12-07T00:43:48;7.10;93.50
3348;DHT22;1687;49.540;8.574;2022-12-07T00:46:14;7.10;93.70
3348;DHT22;1687;49.540;8.574;2022-12-07T00:48:41;7.10;93.80
3348;DHT22;1687;49.540;8.574;2022-12-07T00:51:10;7.20;93.80
3348;DHT22;1687;49.540;8.574;2022-12-07T00:53:37;7.20;93.80
3348;DHT22;1687;49.540;8.574;2022-12-07T00:58:34;7.20;93.70
3348;DHT22;1687;49.540;8.574;2022-12-07T01:01:01;7.30;93.60
3348;DHT22;1687;49.540;8.574;2022-12-07T01:03:28;7.30;93.70
3348;DHT22;1687;49.540;8.574;2022-12-07T01:05:55;7.30;93.70
3348;DHT22;1687;49.540;8.574;2022-12-07T01:08:22;7.30;93.60
3348;DHT22;1687;49.540;8.574;2022-12-07T01:10:49;7.30;93.70
3348;DHT22;1687;49.540;8.574;2022-12-07T01:13:43;7.20;93.60
3348;DHT22;1687;49.540;8.574;2022-12-07T01:16:13;7.20;93.30
3348;DHT22;1687;49.540;8.574;2022-12-07T01:18:40;7.20;93.50
3348;DHT22;1687;49.540;8.574;2022-12-07T01:21:33;7.20;93.40
3348;DHT22;1687;49.540;8.574;2022-12-07T01:24:05;7.10;93.20
3348;DHT22;1687;49.540;8.574;2022-12-07T01:26:32;7.10;93.30
3348;DHT22;1687;49.540;8.574;2022-12-07T01:28:58;7.00;93.10
3348;DHT22;1687;49.540;8.574;2022-12-07T01:31:26;7.00;93.20
3348;DHT22;1687;49.540;8.574;2022-12-07T01:33:56;7.00;93.60
3348;DHT22;1687;49.540;8.574;2022-12-07T01:36:25;7.00;93.50
3348;DHT22;1687;49.540;8.574;2022-12-07T01:38:59;7.00;93.50
3348;DHT22;1687;49.540;8.574;2022-12-07T01:41:30;7.00;93.50
3348;DHT22;1687;49.540;8.574;2022-12-07T01:44:25;6.90;93.20
3348;DHT22;1687;49.540;8.574;2022-12-07T01:47:00;6.90;93.60
3348;DHT22;1687;49.540;8.574;2022-12-07T01:49:43;6.90;93.10
3348;DHT22;1687;49.540;8.574;2022-12-07T01:52:23;6.70;92.80
3348;DHT22;1687;49.540;8.574;2022-12-07T01:55:03;6.60;92.90
3348;DHT22;1687;49.540;8.574;2022-12-07T01:57:33;6.60;93.10
3348;DHT22;1687;49.540;8.574;2022-12-07T02:00:00;6.50;93.10
3348;DHT22;1687;49.540;8.574;2022-12-07T02:02:30;6.50;93.10
3348;DHT22;1687;49.540;8.574;2022-12-07T02:05:00;6.50;93.40
3348;DHT22;1687;49.540;8.574;2022-12-07T02:07:28;6.50;93.70
3348;DHT22;1687;49.540;8.574;2022-12-07T02:09:54;6.60;93.60
3348;DHT22;1687;49.540;8.574;2022-12-07T02:12:20;6.60;93.40
3348;DHT22;1687;49.540;8.574;2022-12-07T02:14:48;6.60;93.50
3348;DHT22;1687;49.540;8.574;2022-12-07T02:17:33;6.60;93.60
3348;DHT22;1687;49.540;8.574;2022-12-07T02:28:31;6.40;93.60
3348;DHT22;1687;49.540;8.574;2022-12-07T02:31:08;6.50;93.80
3348;DHT22;1687;49.540;8.574;2022-12-07T02:33:41;6.40;93.70
3348;DHT22;1687;49.540;8.574;2022-12-07T02:39:11;6.30;93.80
3348;DHT22;1687;49.540;8.574;2022-12-07T02:41:47;6.30;93.70
3348;DHT22;1687;49.540;8.574;2022-12-07T02:44:22;6.30;93.80
3348;DHT22;1687;49.540;8.574;2022-12-07T02:47:01;6.30;93.80
3348;DHT22;1687;49.540;8.574;2022-12-07T02:49:30;6.40;93.90
3348;DHT22;1687;49.540;8.574;2022-12-07T02:51:56;6.50;94.00
3348;DHT22;1687;49.540;8.574;2022-12-07T02:54:22;6.50;93.90
3348;DHT22;1687;49.540;8.574;2022-12-07T02:57:11;6.50;93.80
3348;DHT22;1687;49.540;8.574;2022-12-07T03:05:23;6.70;94.00
3348;DHT22;1687;49.540;8.574;2022-12-07T03:11:09;6.60;93.90
3348;DHT22;1687;49.540;8.574;2022-12-07T03:13:49;6.60;93.90
3348;DHT22;1687;49.540;8.574;2022-12-07T03:16:43;6.60;93.60
3348;DHT22;1687;49.540;8.574;2022-12-07T03:19:18;6.50;93.50
3348;DHT22;1687;49.540;8.574;2022-12-07T03:22:01;6.40;93.40
3348;DHT22;1687;49.540;8.574;2022-12-07T03:24:37;6.20;93.40
3348;DHT22;1687;49.540;8.574;2022-12-07T03:27:15;6.20;93.80
3348;DHT22;1687;49.540;8.574;2022-12-07T03:29:47;6.20;93.80
3348;DHT22;1687;49.540;8.574;2022-12-07T03:35:31;6.30;94.10
3348;DHT22;1687;49.540;8.574;2022-12-07T03:38:25;6.30;94.10
3348;DHT22;1687;49.540;8.574;2022-12-07T03:43:57;6.20;94.00
3348;DHT22;1687;49.540;8.574;2022-12-07T03:49:35;6.10;94.00
3348;DHT22;1687;49.540;8.574;2022-12-07T03:52:11;6.20;94.10
3348;DHT22;1687;49.540;8.574;2022-12-07T03:54:56;6.30;94.40
3348;DHT22;1687;49.540;8.574;2022-12-07T03:57:27;6.30;94.30
3348;DHT22;1687;49.540;8.574;2022-12-07T03:59:55;6.40;94.40
3348;DHT22;1687;49.540;8.574;2022-12-07T04:02:22;6.40;94.20
3348;DHT22;1687;49.540;8.574;2022-12-07T04:04:49;6.30;93.80
3348;DHT22;1687;49.540;8.574;2022-12-07T04:07:15;6.20;94.10
3348;DHT22;1687;49.540;8.574;2022-12-07T04:09:41;6.30;94.30
3348;DHT22;1687;49.540;8.574;2022-12-07T04:12:06;6.20;94.00
3348;DHT22;1687;49.540;8.574;2022-12-07T04:14:32;6.20;93.80
3348;DHT22;1687;49.540;8.574;2022-12-07T04:16:58;6.10;93.80
3348;DHT22;1687;49.540;8.574;2022-12-07T04:19:27;6.10;94.10
3348;DHT22;1687;49.540;8.574;2022-12-07T04:21:54;6.10;94.00
3348;DHT22;1687;49.540;8.574;2022-12-07T04:24:21;6.00;94.00
3348;DHT22;1687;49.540;8.574;2022-12-07T04:26:47;6.00;94.00
3348;DHT22;1687;49.540;8.574;2022-12-07T04:29:14;6.10;94.40
3348;DHT22;1687;49.540;8.574;2022-12-07T04:31:41;6.10;94.40
3348;DHT22;1687;49.540;8.574;2022-12-07T04:34:07;6.20;94.30
3348;DHT22;1687;49.540;8.574;2022-12-07T04:36:34;6.20;94.40
3348;DHT22;1687;49.540;8.574;2022-12-07T04:39:00;6.30;94.60
3348;DHT22;1687;49.540;8.574;2022-12-07T04:41:26;6.30;94.60
3348;DHT22;1687;49.540;8.574;2022-12-07T04:44:03;6.40;94.70
3348;DHT22;1687;49.540;8.574;2022-12-07T04:46:32;6.40;94.50
3348;DHT22;1687;49.540;8.574;2022-12-07T04:48:59;6.40;94.60
3348;DHT22;1687;49.540;8.574;2022-12-07T04:51:27;6.50;94.80
3348;DHT22;1687;49.540;8.574;2022-12-07T04:53:54;6.50;94.70
3348;DHT22;1687;49.540;8.574;2022-12-07T04:56:20;6.50;94.40
3348;DHT22;1687;49.540;8.574;2022-12-07T04:58:47;6.50;94.70
3348;DHT22;1687;49.540;8.574;2022-12-07T05:01:15;6.40;94.30
3348;DHT22;1687;49.540;8.574;2022-12-07T05:03:42;6.40;94.60
3348;DHT22;1687;49.540;8.574;2022-12-07T05:06:08;6.40;94.30
3348;DHT22;1687;49.540;8.574;2022-12-07T05:08:35;6.30;94.30
3348;DHT22;1687;49.540;8.574;2022-12-07T05:11:01;6.30;94.80
3348;DHT22;1687;49.540;8.574;2022-12-07T05:13:27;6.30;94.60
3348;DHT22;1687;49.540;8.574;2022-12-07T05:15:53;6.30;94.50
3348;DHT22;1687;49.540;8.574;2022-12-07T05:18:19;6.30;94.60
3348;DHT22;1687;49.540;8.574;2022-12-07T05:20:45;6.30;94.60
3348;DHT22;1687;49.540;8.574;2022-12-07T05:23:11;6.30;94.70
3348;DHT22;1687;49.540;8.574;2022-12-07T05:25:37;6.20;94.30
3348;DHT22;1687;49.540;8.574;2022-12-07T05:28:04;6.30;95.00
3348;DHT22;1687;49.540;8.574;2022-12-07T05:30:30;6.30;94.90
3348;DHT22;1687;49.540;8.574;2022-12-07T05:32:56;6.50;95.10
3348;DHT22;1687;49.540;8.574;2022-12-07T05:35:22;6.60;95.20
3348;DHT22;1687;49.540;8.574;2022-12-07T05:37:49;6.60;95.10
3348;DHT22;1687;49.540;8.574;2022-12-07T05:40:15;6.60;95.10
3348;DHT22;1687;49.540;8.574;2022-12-07T05:42:42;6.70;95.20
3348;DHT22;1687;49.540;8.574;2022-12-07T05:45:09;6.70;95.00
3348;DHT22;1687;49.540;8.574;2022-12-07T05:47:35;6.60;94.80
3348;DHT22;1687;49.540;8.574;2022-12-07T05:50:05;6.70;95.10
3348;DHT22;1687;49.540;8.574;2022-12-07T05:52:31;6.70;95.10
3348;DHT22;1687;49.540;8.574;2022-12-07T05:54:57;6.70;94.90
3348;DHT22;1687;49.540;8.574;2022-12-07T05:57:23;6.70;95.00
3348;DHT22;1687;49.540;8.574;2022-12-07T05:59:49;6.70;95.10
3348;DHT22;1687;49.540;8.574;2022-12-07T06:02:16;6.60;94.80
3348;DHT22;1687;49.540;8.574;2022-12-07T06:04:45;6.60;94.90
3348;DHT22;1687;49.540;8.574;2022-12-07T06:07:12;6.50;94.80
3348;DHT22;1687;49.540;8.574;2022-12-07T06:09:39;6.40;94.70
3348;DHT22;1687;49.540;8.574;2022-12-07T06:12:05;6.40;94.70
3348;DHT22;1687;49.540;8.574;2022-12-07T06:14:50;6.30;94.60
3348;DHT22;1687;49.540;8.574;2022-12-07T06:17:16;6.30;94.90
3348;DHT22;1687;49.540;8.574;2022-12-07T06:19:42;6.30;95.20
3348;DHT22;1687;49.540;8.574;2022-12-07T06:22:08;6.40;95.10
3348;DHT22;1687;49.540;8.574;2022-12-07T06:24:36;6.40;95.00
3348;DHT22;1687;49.540;8.574;2022-12-07T06:27:01;6.30;95.00
3348;DHT22;1687;49.540;8.574;2022-12-07T06:29:27;6.40;95.10
3348;DHT22;1687;49.540;8.574;2022-12-07T06:31:53;6.30;94.90
3348;DHT22;1687;49.540;8.574;2022-12-07T06:34:21;6.30;95.10
3348;DHT22;1687;49.540;8.574;2022-12-07T06:36:48;6.30;95.00
3348;DHT22;1687;49.540;8.574;2022-12-07T06:39:18;6.20;94.80
3348;DHT22;1687;49.540;8.574;2022-12-07T06:41:44;6.20;94.90
3348;DHT22;1687;49.540;8.574;2022-12-07T06:44:10;6.30;95.50
3348;DHT22;1687;49.540;8.574;2022-12-07T06:46:36;6.40;95.40
3348;DHT22;1687;49.540;8.574;2022-12-07T06:49:03;6.50;95.50
3348;DHT22;1687;49.540;8.574;2022-12-07T06:51:30;6.60;95.40
3348;DHT22;1687;49.540;8.574;2022-12-07T06:53:56;6.50;95.10
3348;DHT22;1687;49.540;8.574;2022-12-07T06:56:22;6.50;95.00
3348;DHT22;1687;49.540;8.574;2022-12-07T06:58:48;6.30;94.70
3348;DHT22;1687;49.540;8.574;2022-12-07T07:01:17;6.20;94.80
3348;DHT22;1687;49.540;8.574;2022-12-07T07:03:44;6.20;95.00
3348;DHT22;1687;49.540;8.574;2022-12-07T07:06:11;6.20;95.30
3348;DHT22;1687;49.540;8.574;2022-12-07T07:08:38;6.30;95.30
3348;DHT22;1687;49.540;8.574;2022-12-07T07:11:04;6.30;95.30
3348;DHT22;1687;49.540;8.574;2022-12-07T07:13:31;6.30;95.30
3348;DHT22;1687;49.540;8.574;2022-12-07T07:15:57;6.30;95.70
3348;DHT22;1687;49.540;8.574;2022-12-07T07:18:23;6.40;95.60
3348;DHT22;1687;49.540;8.574;2022-12-07T07:20:50;6.40;95.50
3348;DHT22;1687;49.540;8.574;2022-12-07T07:23:17;6.50;95.60
3348;DHT22;1687;49.540;8.574;2022-12-07T07:25:44;6.40;95.10
3348;DHT22;1687;49.540;8.574;2022-12-07T07:28:10;6.40;95.20
3348;DHT22;1687;49.540;8.574;2022-12-07T07:30:36;6.30;95.20
3348;DHT22;1687;49.540;8.574;2022-12-07T07:33:03;6.40;95.50
3348;DHT22;1687;49.540;8.574;2022-12-07T07:35:31;6.40;95.80
3348;DHT22;1687;49.540;8.574;2022-12-07T07:37:57;6.50;95.40
3348;DHT22;1687;49.540;8.574;2022-12-07T07:40:24;6.50;95.40
3348;DHT22;1687;49.540;8.574;2022-12-07T07:42:52;6.50;95.50
3348;DHT22;1687;49.540;8.574;2022-12-07T07:45:20;6.50;95.40
3348;DHT22;1687;49.540;8.574;2022-12-07T07:47:47;6.50;95.60
3348;DHT22;1687;49.540;8.574;2022-12-07T07:50:14;6.50;95.50
3348;DHT22;1687;49.540;8.574;2022-12-07T07:52:40;6.50;95.50
3348;DHT22;1687;49.540;8.574;2022-12-07T07:55:06;6.40;95.20
3348;DHT22;1687;49.540;8.574;2022-12-07T07:57:34;6.40;95.50
3348;DHT22;1687;49.540;8.574;2022-12-07T08:00:03;6.50;95.70
3348;DHT22;1687;49.540;8.574;2022-12-07T08:02:29;6.50;95.60
3348;DHT22;1687;49.540;8.574;2022-12-07T08:04:55;6.50;95.40
3348;DHT22;1687;49.540;8.574;2022-12-07T08:07:20;6.50;95.60
3348;DHT22;1687;49.540;8.574;2022-12-07T08:09:46;6.50;95.60
3348;DHT22;1687;49.540;8.574;2022-12-07T08:12:12;6.60;95.90
3348;DHT22;1687;49.540;8.574;2022-12-07T08:14:38;6.70;95.90
3348;DHT22;1687;49.540;8.574;2022-12-07T08:17:03;6.80;95.90
3348;DHT22;1687;49.540;8.574;2022-12-07T08:19:29;6.70;95.50
3348;DHT22;1687;49.540;8.574;2022-12-07T08:21:55;6.70;95.80
3348;DHT22;1687;49.540;8.574;2022-12-07T08:24:21;6.80;95.90
3348;DHT22;1687;49.540;8.574;2022-12-07T08:26:47;6.90;95.80
3348;DHT22;1687;49.540;8.574;2022-12-07T08:29:15;6.80;95.40
3348;DHT22;1687;49.540;8.574;2022-12-07T08:31:40;6.70;95.40
3348;DHT22;1687;49.540;8.574;2022-12-07T08:34:06;6.70;95.80
3348;DHT22;1687;49.540;8.574;2022-12-07T08:36:32;6.80;95.90
3348;DHT22;1687;49.540;8.574;2022-12-07T08:38:57;6.80;95.40
3348;DHT22;1687;49.540;8.574;2022-12-07T08:41:23;6.70;95.50
3348;DHT22;1687;49.540;8.574;2022-12-07T08:43:50;6.80;95.90
3348;DHT22;1687;49.540;8.574;2022-12-07T08:46:35;6.80;95.70
3348;DHT22;1687;49.540;8.574;2022-12-07T08:51:39;6.70;95.40
3348;DHT22;1687;49.540;8.574;2022-12-07T08:54:09;6.60;95.40
3348;DHT22;1687;49.540;8.574;2022-12-07T08:56:36;6.60;95.70
3348;DHT22;1687;49.540;8.574;2022-12-07T08:59:03;6.60;95.60
3348;DHT22;1687;49.540;8.574;2022-12-07T09:01:30;6.60;95.60
3348;DHT22;1687;49.540;8.574;2022-12-07T09:03:55;6.60;95.30
3348;DHT22;1687;49.540;8.574;2022-12-07T09:06:21;6.50;95.50
3348;DHT22;1687;49.540;8.574;2022-12-07T09:08:50;6.60;95.80
3348;DHT22;1687;49.540;8.574;2022-12-07T09:11:18;6.50;95.30
3348;DHT22;1687;49.540;8.574;2022-12-07T09:13:43;6.60;95.90
3348;DHT22;1687;49.540;8.574;2022-12-07T09:16:09;6.80;96.10
3348;DHT22;1687;49.540;8.574;2022-12-07T09:18:35;6.90;96.10
3348;DHT22;1687;49.540;8.574;2022-12-07T09:21:00;7.00;95.90
3348;DHT22;1687;49.540;8.574;2022-12-07T09:23:26;6.90;95.40
3348;DHT22;1687;49.540;8.574;2022-12-07T09:25:52;6.80;95.30
3348;DHT22;1687;49.540;8.574;2022-12-07T09:28:17;6.70;95.40
3348;DHT22;1687;49.540;8.574;2022-12-07T09:30:49;6.70;95.40
3348;DHT22;1687;49.540;8.574;2022-12-07T09:33:15;6.60;95.70
3348;DHT22;1687;49.540;8.574;2022-12-07T09:35:47;6.70;95.80
3348;DHT22;1687;49.540;8.574;2022-12-07T09:38:14;6.70;95.40
3348;DHT22;1687;49.540;8.574;2022-12-07T09:40:41;6.60;95.60
3348;DHT22;1687;49.540;8.574;2022-12-07T09:45:40;6.80;95.80
3348;DHT22;1687;49.540;8.574;2022-12-07T09:48:32;6.90;95.70
3348;DHT22;1687;49.540;8.574;2022-12-07T09:51:17;6.90;95.90
3348;DHT22;1687;49.540;8.574;2022-12-07T09:53:44;6.90;95.70
3348;DHT22;1687;49.540;8.574;2022-12-07T09:56:15;7.00;96.00
3348;DHT22;1687;49.540;8.574;2022-12-07T09:58:42;7.10;95.90
3348;DHT22;1687;49.540;8.574;2022-12-07T10:03:37;7.20;95.90
3348;DHT22;1687;49.540;8.574;2022-12-07T10:06:06;7.30;95.50
3348;DHT22;1687;49.540;8.574;2022-12-07T10:08:32;7.30;95.80
3348;DHT22;1687;49.540;8.574;2022-12-07T10:11:01;7.40;96.00
3348;DHT22;1687;49.540;8.574;2022-12-07T10:13:40;7.40;95.90
3348;DHT22;1687;49.540;8.574;2022-12-07T10:18:50;7.50;95.70
3348;DHT22;1687;49.540;8.574;2022-12-07T10:21:18;7.50;95.80
3348;DHT22;1687;49.540;8.574;2022-12-07T10:29:16;7.50;95.70
3348;DHT22;1687;49.540;8.574;2022-12-07T10:31:45;7.50;96.30
3348;DHT22;1687;49.540;8.574;2022-12-07T10:34:22;7.60;95.90
3348;DHT22;1687;49.540;8.574;2022-12-07T10:36:50;7.70;95.90
3348;DHT22;1687;49.540;8.574;2022-12-07T10:39:20;7.70;95.80
3348;DHT22;1687;49.540;8.574;2022-12-07T10:41:56;7.80;95.90
3348;DHT22;1687;49.540;8.574;2022-12-07T10:44:26;7.80;95.70
3348;DHT22;1687;49.540;8.574;2022-12-07T10:47:59;7.80;95.50
3348;DHT22;1687;49.540;8.574;2022-12-07T10:55:22;8.00;95.80
3348;DHT22;1687;49.540;8.574;2022-12-07T11:00:37;7.90;95.30
3348;DHT22;1687;49.540;8.574;2022-12-07T11:03:25;7.90;95.40
3348;DHT22;1687;49.540;8.574;2022-12-07T11:08:58;7.80;95.30
3348;DHT22;1687;49.540;8.574;2022-12-07T11:11:36;7.80;95.40
3348;DHT22;1687;49.540;8.574;2022-12-07T11:14:36;7.80;95.60
3348;DHT22;1687;49.540;8.574;2022-12-07T11:17:23;7.90;95.60
3348;DHT22;1687;49.540;8.574;2022-12-07T11:26:13;7.80;95.20
3348;DHT22;1687;49.540;8.574;2022-12-07T11:38:28;7.80;95.60
3348;DHT22;1687;49.540;8.574;2022-12-07T11:41:03;7.90;95.60
3348;DHT22;1687;49.540;8.574;2022-12-07T11:43:53;7.90;95.40
3348;DHT22;1687;49.540;8.574;2022-12-07T11:46:47;8.00;95.60
3348;DHT22;1687;49.540;8.574;2022-12-07T11:52:20;8.00;95.20
3348;DHT22;1687;49.540;8.574;2022-12-07T11:54:52;8.00;95.30
3348;DHT22;1687;49.540;8.574;2022-12-07T11:57:28;8.00;95.10
3348;DHT22;1687;49.540;8.574;2022-12-07T12:00:05;8.10;95.40
3348;DHT22;1687;49.540;8.574;2022-12-07T12:02:52;8.30;95.90
3348;DHT22;1687;49.540;8.574;2022-12-07T12:05:26;8.40;95.70
3348;DHT22;1687;49.540;8.574;2022-12-07T12:11:00;8.60;95.40
3348;DHT22;1687;49.540;8.574;2022-12-07T12:20:31;8.60;95.30
3348;DHT22;1687;49.540;8.574;2022-12-07T12:23:20;8.60;95.20
3348;DHT22;1687;49.540;8.574;2022-12-07T12:25:59;8.60;95.50
3348;DHT22;1687;49.540;8.574;2022-12-07T12:28:29;8.70;95.40
3348;DHT22;1687;49.540;8.574;2022-12-07T12:33:55;9.00;95.60
3348;DHT22;1687;49.540;8.574;2022-12-07T12:46:57;8.40;94.80
3348;DHT22;1687;49.540;8.574;2022-12-07T12:54:19;8.30;94.50
3348;DHT22;1687;49.540;8.574;2022-12-07T12:56:52;8.20;94.30
3348;DHT22;1687;49.540;8.574;2022-12-07T12:59:36;8.20;94.70
3348;DHT22;1687;49.540;8.574;2022-12-07T13:02:25;8.30;94.70
3348;DHT22;1687;49.540;8.574;2022-12-07T13:04:56;8.50;94.60
3348;DHT22;1687;49.540;8.574;2022-12-07T13:15:52;8.50;94.20
3348;DHT22;1687;49.540;8.574;2022-12-07T13:23:39;8.60;93.90
3348;DHT22;1687;49.540;8.574;2022-12-07T13:31:45;8.40;93.10
3348;DHT22;1687;49.540;8.574;2022-12-07T13:34:38;8.40;93.30
3348;DHT22;1687;49.540;8.574;2022-12-07T13:37:14;8.50;93.50
3348;DHT22;1687;49.540;8.574;2022-12-07T13:39:50;8.50;93.10
3348;DHT22;1687;49.540;8.574;2022-12-07T13:42:28;8.50;92.90
3348;DHT22;1687;49.540;8.574;2022-12-07T13:44:59;8.50;93.10
3348;DHT22;1687;49.540;8.574;2022-12-07T13:47:53;8.60;93.10
3348;DHT22;1687;49.540;8.574;2022-12-07T13:50:27;8.60;92.60
3348;DHT22;1687;49.540;8.574;2022-12-07T13:52:56;8.60;92.60
3348;DHT22;1687;49.540;8.574;2022-12-07T13:55:23;8.60;92.50
3348;DHT22;1687;49.540;8.574;2022-12-07T13:57:51;8.60;92.40
3348;DHT22;1687;49.540;8.574;2022-12-07T14:00:23;8.60;92.50
3348;DHT22;1687;49.540;8.574;2022-12-07T14:05:43;8.50;92.20
3348;DHT22;1687;49.540;8.574;2022-12-07T14:10:54;8.40;92.00
3348;DHT22;1687;49.540;8.574;2022-12-07T14:13:39;8.40;91.90
3348;DHT22;1687;49.540;8.574;2022-12-07T14:16:32;8.30;91.90
3348;DHT22;1687;49.540;8.574;2022-12-07T14:19:04;8.50;92.30
3348;DHT22;1687;49.540;8.574;2022-12-07T14:21:33;8.50;92.00
3348;DHT22;1687;49.540;8.574;2022-12-07T14:24:17;8.50;91.70
3348;DHT22;1687;49.540;8.574;2022-12-07T14:26:46;8.50;91.70
3348;DHT22;1687;49.540;8.574;2022-12-07T14:31:57;8.50;91.50
3348;DHT22;1687;49.540;8.574;2022-12-07T14:34:24;8.40;91.20
3348;DHT22;1687;49.540;8.574;2022-12-07T14:36:51;8.30;90.90
3348;DHT22;1687;49.540;8.574;2022-12-07T14:39:16;8.20;91.10
3348;DHT22;1687;49.540;8.574;2022-12-07T14:41:42;8.20;91.00
3348;DHT22;1687;49.540;8.574;2022-12-07T14:44:18;8.20;91.00
3348;DHT22;1687;49.540;8.574;2022-12-07T14:46:45;8.20;91.10
3348;DHT22;1687;49.540;8.574;2022-12-07T14:49:10;8.20;91.00
3348;DHT22;1687;49.540;8.574;2022-12-07T14:51:39;8.30;91.10
3348;DHT22;1687;49.540;8.574;2022-12-07T14:54:14;8.30;91.00
3348;DHT22;1687;49.540;8.574;2022-12-07T14:56:42;8.30;90.90
3348;DHT22;1687;49.540;8.574;2022-12-07T14:59:09;8.30;90.50
3348;DHT22;1687;49.540;8.574;2022-12-07T15:01:37;8.20;90.40
3348;DHT22;1687;49.540;8.574;2022-12-07T15:04:03;8.10;90.30
3348;DHT22;1687;49.540;8.574;2022-12-07T15:06:28;8.10;90.50
3348;DHT22;1687;49.540;8.574;2022-12-07T15:08:54;8.10;90.40
3348;DHT22;1687;49.540;8.574;2022-12-07T15:11:20;8.10;90.40
3348;DHT22;1687;49.540;8.574;2022-12-07T15:13:46;8.00;90.20
3348;DHT22;1687;49.540;8.574;2022-12-07T15:16:31;8.00;90.10
3348;DHT22;1687;49.540;8.574;2022-12-07T15:18:56;8.00;90.30
3348;DHT22;1687;49.540;8.574;2022-12-07T15:21:22;8.00;90.10
3348;DHT22;1687;49.540;8.574;2022-12-07T15:23:48;8.00;90.20
3348;DHT22;1687;49.540;8.574;2022-12-07T15:26:13;8.00;90.00
3348;DHT22;1687;49.540;8.574;2022-12-07T15:28:40;8.00;90.10
3348;DHT22;1687;49.540;8.574;2022-12-07T15:31:13;8.00;90.10
3348;DHT22;1687;49.540;8.574;2022-12-07T15:33:40;7.90;89.90
3348;DHT22;1687;49.540;8.574;2022-12-07T15:36:07;8.00;90.10
3348;DHT22;1687;49.540;8.574;2022-12-07T15:38:32;8.00;90.10
3348;DHT22;1687;49.540;8.574;2022-12-07T15:40:58;8.00;90.00
3348;DHT22;1687;49.540;8.574;2022-12-07T15:43:24;8.00;89.80
3348;DHT22;1687;49.540;8.574;2022-12-07T15:46:08;8.00;89.50
3348;DHT22;1687;49.540;8.574;2022-12-07T15:48:34;8.10;90.00
3348;DHT22;1687;49.540;8.574;2022-12-07T15:51:08;8.10;89.80
3348;DHT22;1687;49.540;8.574;2022-12-07T15:53:35;8.10;89.60
3348;DHT22;1687;49.540;8.574;2022-12-07T15:56:01;8.10;90.10
3348;DHT22;1687;49.540;8.574;2022-12-07T15:58:26;8.20;90.00
3348;DHT22;1687;49.540;8.574;2022-12-07T16:00:52;8.20;89.80
3348;DHT22;1687;49.540;8.574;2022-12-07T16:03:18;8.20;89.40
3348;DHT22;1687;49.540;8.574;2022-12-07T16:05:51;8.20;89.60
3348;DHT22;1687;49.540;8.574;2022-12-07T16:08:18;8.30;89.50
3348;DHT22;1687;49.540;8.574;2022-12-07T16:10:44;8.20;89.10
3348;DHT22;1687;49.540;8.574;2022-12-07T16:13:10;8.20;88.90
3348;DHT22;1687;49.540;8.574;2022-12-07T16:15:40;8.10;88.60
3348;DHT22;1687;49.540;8.574;2022-12-07T16:18:07;8.10;88.60
3348;DHT22;1687;49.540;8.574;2022-12-07T16:20:33;8.10;88.80
3348;DHT22;1687;49.540;8.574;2022-12-07T16:22:59;8.10;89.70
3348;DHT22;1687;49.540;8.574;2022-12-07T16:25:24;8.10;88.60
3348;DHT22;1687;49.540;8.574;2022-12-07T16:27:53;8.00;88.40
3348;DHT22;1687;49.540;8.574;2022-12-07T16:30:19;8.00;88.50
3348;DHT22;1687;49.540;8.574;2022-12-07T16:32:45;7.90;88.10
3348;DHT22;1687;49.540;8.574;2022-12-07T16:35:11;7.80;87.70
3348;DHT22;1687;49.540;8.574;2022-12-07T16:37:38;7.80;88.00
3348;DHT22;1687;49.540;8.574;2022-12-07T16:40:04;7.70;87.70
3348;DHT22;1687;49.540;8.574;2022-12-07T16:42:34;7.60;87.50
3348;DHT22;1687;49.540;8.574;2022-12-07T16:45:01;7.60;87.90
3348;DHT22;1687;49.540;8.574;2022-12-07T16:47:27;7.60;87.70
3348;DHT22;1687;49.540;8.574;2022-12-07T16:49:53;7.50;87.20
3348;DHT22;1687;49.540;8.574;2022-12-07T16:52:19;7.40;87.50
3348;DHT22;1687;49.540;8.574;2022-12-07T16:54:46;7.40;87.60
3348;DHT22;1687;49.540;8.574;2022-12-07T16:57:12;7.40;87.40
3348;DHT22;1687;49.540;8.574;2022-12-07T16:59:38;7.40;87.50
3348;DHT22;1687;49.540;8.574;2022-12-07T17:02:04;7.40;87.50
3348;DHT22;1687;49.540;8.574;2022-12-07T17:04:32;7.40;87.50
3348;DHT22;1687;49.540;8.574;2022-12-07T17:06:58;7.40;87.30
3348;DHT22;1687;49.540;8.574;2022-12-07T17:09:24;7.40;87.90
3348;DHT22;1687;49.540;8.574;2022-12-07T17:11:50;7.40;87.20
3348;DHT22;1687;49.540;8.574;2022-12-07T17:14:16;7.40;87.20
3348;DHT22;1687;49.540;8.574;2022-12-07T17:17:00;7.30;87.30
3348;DHT22;1687;49.540;8.574;2022-12-07T17:19:26;7.40;87.40
3348;DHT22;1687;49.540;8.574;2022-12-07T17:21:52;7.40;88.30
3348;DHT22;1687;49.540;8.574;2022-12-07T17:24:18;7.40;87.40
3348;DHT22;1687;49.540;8.574;2022-12-07T17:26:45;7.30;87.10
3348;DHT22;1687;49.540;8.574;2022-12-07T17:29:13;7.30;87.60
3348;DHT22;1687;49.540;8.574;2022-12-07T17:31:40;7.40;87.50
3348;DHT22;1687;49.540;8.574;2022-12-07T17:34:11;7.40;87.70
3348;DHT22;1687;49.540;8.574;2022-12-07T17:36:38;7.50;87.80
3348;DHT22;1687;49.540;8.574;2022-12-07T17:39:08;7.50;87.70
3348;DHT22;1687;49.540;8.574;2022-12-07T17:41:35;7.50;88.10
3348;DHT22;1687;49.540;8.574;2022-12-07T17:44:21;7.50;87.70
3348;DHT22;1687;49.540;8.574;2022-12-07T17:46:50;7.50;87.60
3348;DHT22;1687;49.540;8.574;2022-12-07T17:49:20;7.50;87.20
3348;DHT22;1687;49.540;8.574;2022-12-07T17:51:46;7.40;87.20
3348;DHT22;1687;49.540;8.574;2022-12-07T17:54:30;7.40;87.70
3348;DHT22;1687;49.540;8.574;2022-12-07T17:56:56;7.40;87.40
3348;DHT22;1687;49.540;8.574;2022-12-07T17:59:22;7.40;87.30
3348;DHT22;1687;49.540;8.574;2022-12-07T18:01:48;7.40;87.70
3348;DHT22;1687;49.540;8.574;2022-12-07T18:04:14;7.50;87.80
3348;DHT22;1687;49.540;8.574;2022-12-07T18:06:41;7.50;88.10
3348;DHT22;1687;49.540;8.574;2022-12-07T18:09:08;7.60;87.90
3348;DHT22;1687;49.540;8.574;2022-12-07T18:11:34;7.70;88.10
3348;DHT22;1687;49.540;8.574;2022-12-07T18:14:01;7.70;88.30
3348;DHT22;1687;49.540;8.574;2022-12-07T18:16:28;7.70;87.90
3348;DHT22;1687;49.540;8.574;2022-12-07T18:18:58;7.70;87.70
3348;DHT22;1687;49.540;8.574;2022-12-07T18:21:26;7.80;87.50
3348;DHT22;1687;49.540;8.574;2022-12-07T18:23:55;7.70;87.30
3348;DHT22;1687;49.540;8.574;2022-12-07T18:26:23;7.60;86.70
3348;DHT22;1687;49.540;8.574;2022-12-07T18:28:50;7.50;87.10
3348;DHT22;1687;49.540;8.574;2022-12-07T18:31:17;7.50;87.60
3348;DHT22;1687;49.540;8.574;2022-12-07T18:33:45;7.60;87.80
3348;DHT22;1687;49.540;8.574;2022-12-07T18:36:12;7.60;87.40
3348;DHT22;1687;49.540;8.574;2022-12-07T18:38:38;7.60;87.20
3348;DHT22;1687;49.540;8.574;2022-12-07T18:41:12;7.60;87.20
3348;DHT22;1687;49.540;8.574;2022-12-07T18:43:38;7.50;87.30
3348;DHT22;1687;49.540;8.574;2022-12-07T18:46:16;7.50;87.60
3348;DHT22;1687;49.540;8.574;2022-12-07T18:48:44;7.50;87.00